Time;durP1;ratioP1;P1;durP2;ratioP2;P2;SDS_P1;SDS_P2;PMS_P1;PMS_P2;Temp;Humidity;BMP_temperature;BMP_pressure;BME280_temperature;BME280_humidity;BME280_pressure;Samples;Min_cycle;Max_cycle;Signal;HPM_P1;HPM_P2
2023/05/24 00:01:24;;;;;;;5.72;3.60;;;;;;;14.20;60.33;96957.78;4878783;29;20481;-78
2023/05/24 00:03:52;;;;;;;7.32;3.90;;;;;;;14.18;60.36;96954.53;4878349;29;20056;-78
2023/05/24 00:06:20;;;;;;;6.68;4.10;;;;;;;14.14;60.25;96948.06;4878173;29;20064;-79
2023/05/24 00:08:49;;;;;;;5.05;4.00;;;;;;;14.10;60.32;96954.69;4878622;29;20081;-79
2023/05/24 00:11:16;;;;;;;6.05;3.97;;;;;;;14.04;60.12;96942.34;4878326;29;20049;-79
2023/05/24 00:13:44;;;;;;;5.95;3.88;;;;;;;14.00;60.53;96950.63;4878421;29;20061;-79
2023/05/24 00:16:12;;;;;;;7.68;4.45;;;;;;;13.98;60.35;96955.25;4877888;29;20049;-78
2023/05/24 00:18:39;;;;;;;5.03;4.32;;;;;;;13.97;60.20;96942.31;4878127;29;20631;-79
2023/05/24 00:21:08;;;;;;;8.02;4.82;;;;;;;13.90;60.33;96947.53;4878401;29;20049;-78
2023/05/24 00:23:37;;;;;;;5.78;4.50;;;;;;;13.84;60.42;96940.47;4878135;29;20505;-79
2023/05/24 00:26:06;;;;;;;7.07;4.93;;;;;;;13.80;60.66;96939.25;4877988;29;20057;-79
2023/05/24 00:28:34;;;;;;;6.15;4.47;;;;;;;13.77;60.64;96940.44;4878002;29;20113;-79
2023/05/24 00:31:02;;;;;;;6.38;4.13;;;;;;;13.76;60.56;96945.88;4877936;29;20080;-79
2023/05/24 00:33:29;;;;;;;4.28;3.60;;;;;;;13.72;60.64;96934.94;4878022;29;20057;-79
2023/05/24 00:35:57;;;;;;;6.50;4.00;;;;;;;13.74;60.67;96937.38;4877606;29;20056;-78
2023/05/24 00:38:26;;;;;;;7.32;4.55;;;;;;;13.72;60.76;96937.56;4881041;29;20116;-79
2023/05/24 00:40:55;;;;;;;5.75;3.75;;;;;;;13.74;62.76;96943.44;4882090;29;20080;-79
2023/05/24 00:43:24;;;;;;;6.30;4.25;;;;;;;13.74;61.14;96945.25;4881306;29;20057;-79
2023/05/24 00:46:12;;;;;;;6.78;4.13;;;;;;;13.69;61.01;96940.59;4880970;29;20499;-79
2023/05/24 00:48:40;;;;;;;6.10;3.75;;;;;;;13.69;60.99;96939.78;4881415;29;20064;-79
2023/05/24 00:51:07;;;;;;;6.20;4.43;;;;;;;13.67;61.15;96941.78;4881323;29;20135;-78
2023/05/24 00:53:37;;;;;;;6.13;4.07;;;;;;;13.65;60.97;96938.53;4881154;29;20082;-79
2023/05/24 00:56:06;;;;;;;5.68;3.70;;;;;;;13.64;60.99;96936.91;4880817;29;20057;-78
2023/05/24 00:58:35;;;;;;;8.18;4.78;;;;;;;13.63;61.17;96937.94;4881231;29;20061;-79
2023/05/24 01:01:03;;;;;;;4.70;3.78;;;;;;;13.61;61.37;96938.09;4881114;29;20100;-78
2023/05/24 01:03:32;;;;;;;7.45;3.95;;;;;;;13.58;61.34;96934.06;4881174;29;20197;-78
2023/05/24 01:06:04;;;;;;;5.70;4.10;;;;;;;13.52;61.67;96937.44;4881060;29;20053;-79
2023/05/24 01:08:43;;;;;;;7.32;4.30;;;;;;;13.48;61.71;96933.59;4881304;29;20056;-79
2023/05/24 01:11:22;;;;;;;8.57;4.35;;;;;;;13.46;61.78;96938.22;4881103;29;20053;-78
2023/05/24 01:13:58;;;;;;;7.63;4.53;;;;;;;13.43;61.83;96941.22;4880994;29;20057;-79
2023/05/24 01:16:36;;;;;;;5.28;3.90;;;;;;;13.44;62.19;96931.53;4880798;29;20084;-79
2023/05/24 01:19:16;;;;;;;4.68;3.88;;;;;;;13.44;62.65;96927.09;4880751;29;20084;-79
2023/05/24 01:21:57;;;;;;;5.60;3.75;;;;;;;13.45;62.33;96927.94;4880985;29;20552;-79
2023/05/24 01:24:30;;;;;;;5.68;4.20;;;;;;;13.46;62.65;96917.25;4880621;29;20101;-79
2023/05/24 01:27:07;;;;;;;10.85;4.55;;;;;;;13.48;62.44;96917.06;4880682;29;20091;-79
2023/05/24 01:29:35;;;;;;;5.65;4.32;;;;;;;13.48;61.82;96917.88;4880567;29;20057;-78
2023/05/24 01:32:03;;;;;;;8.73;4.70;;;;;;;13.43;61.82;96915.03;4892102;29;20049;-79
2023/05/24 01:34:31;;;;;;;5.90;4.22;;;;;;;13.42;61.93;96918.63;4895543;29;20057;-78
2023/05/24 01:36:59;;;;;;;5.35;4.40;;;;;;;13.38;62.08;96917.38;4885200;29;20053;-79
2023/05/24 01:39:29;;;;;;;9.27;5.45;;;;;;;13.33;62.68;96911.91;4880805;29;20053;-79
2023/05/24 01:42:08;;;;;;;8.55;5.15;;;;;;;13.32;62.46;96918.19;4880657;29;20069;-79
2023/05/24 01:44:42;;;;;;;4.70;3.72;;;;;;;13.33;63.78;96914.53;4880496;29;20099;-78
2023/05/24 01:47:25;;;;;;;8.35;4.88;;;;;;;13.33;62.92;96909.31;4880405;29;20105;-79
2023/05/24 01:49:56;;;;;;;7.00;4.57;;;;;;;13.32;62.73;96912.94;4879446;29;20053;-79
2023/05/24 01:52:31;;;;;;;6.53;4.85;;;;;;;13.28;62.62;96911.66;4880210;29;20093;-79
2023/05/24 01:55:02;;;;;;;6.47;4.70;;;;;;;13.25;62.38;96912.03;4880571;29;20052;-79
2023/05/24 01:57:34;;;;;;;8.07;3.95;;;;;;;13.22;62.69;96917.66;4880215;29;20048;-79
2023/05/24 02:00:04;;;;;;;7.05;4.40;;;;;;;13.17;63.00;96921.66;4880471;29;20060;-79
2023/05/24 02:02:32;;;;;;;11.80;5.13;;;;;;;13.19;62.55;96917.03;4880075;29;20568;-78
2023/05/24 02:05:00;;;;;;;7.50;4.63;;;;;;;13.20;62.15;96916.03;4880019;29;20049;-79
2023/05/24 02:07:27;;;;;;;6.80;4.80;;;;;;;13.17;62.03;96919.03;4880239;29;20053;-78
2023/05/24 02:09:55;;;;;;;8.80;4.80;;;;;;;13.10;61.92;96918.19;4879795;29;20567;-79
2023/05/24 02:12:23;;;;;;;7.18;4.28;;;;;;;13.07;61.60;96913.31;4880203;29;20100;-79
2023/05/24 02:14:53;;;;;;;9.30;4.55;;;;;;;13.02;61.76;96920.13;4879690;29;20077;-78
2023/05/24 02:17:21;;;;;;;8.75;4.72;;;;;;;12.96;61.80;96919.88;4879499;29;20049;-79
2023/05/24 02:19:49;;;;;;;8.00;4.32;;;;;;;12.91;62.38;96916.22;4879850;29;20061;-79
2023/05/24 02:22:16;;;;;;;7.57;4.53;;;;;;;12.86;62.39;96921.22;4879952;29;20059;-79
2023/05/24 02:24:44;;;;;;;7.78;4.55;;;;;;;12.82;62.32;96923.38;4879492;29;20116;-79
2023/05/24 02:27:11;;;;;;;7.50;4.10;;;;;;;12.78;62.45;96925.56;4879566;29;20097;-79
2023/05/24 02:29:40;;;;;;;9.30;4.47;;;;;;;12.77;62.19;96926.56;4879475;29;20143;-79
2023/05/24 02:32:09;;;;;;;7.75;4.70;;;;;;;12.75;61.82;96933.78;4879952;29;20085;-79
2023/05/24 02:34:37;;;;;;;6.15;4.18;;;;;;;12.70;62.21;96928.31;4890335;29;20084;-79
2023/05/24 02:37:05;;;;;;;11.20;5.05;;;;;;;12.66;62.00;96929.69;4889917;29;20053;-78
2023/05/24 02:39:32;;;;;;;12.07;4.93;;;;;;;12.65;61.88;96929.88;4891051;29;20076;-78
2023/05/24 02:42:00;;;;;;;10.68;4.60;;;;;;;12.63;61.91;96940.50;4880478;29;20132;-78
2023/05/24 02:44:28;;;;;;;5.03;4.03;;;;;;;12.63;62.71;96930.03;4879136;29;20052;-78
2023/05/24 02:46:55;;;;;;;7.35;4.30;;;;;;;12.65;61.90;96935.09;4879527;29;20135;-78
2023/05/24 02:49:24;;;;;;;10.95;4.10;;;;;;;12.60;61.78;96927.00;4879417;29;20087;-78
2023/05/24 02:51:52;;;;;;;10.50;4.10;;;;;;;12.60;62.05;96935.66;4879538;29;20063;-78
2023/05/24 02:54:19;;;;;;;7.13;4.22;;;;;;;12.58;62.17;96930.59;4879093;29;20076;-78
2023/05/24 02:56:47;;;;;;;6.95;4.40;;;;;;;12.57;61.99;96933.41;4879031;29;20097;-78
2023/05/24 02:59:15;;;;;;;9.73;4.45;;;;;;;12.58;61.42;96925.38;4879087;29;20049;-78
2023/05/24 03:01:43;;;;;;;9.95;4.60;;;;;;;12.51;61.65;96928.94;4879036;29;20053;-79
2023/05/24 03:04:10;;;;;;;9.73;4.20;;;;;;;12.50;62.52;96930.72;4878952;29;20141;-78
2023/05/24 03:06:39;;;;;;;9.07;4.30;;;;;;;12.57;62.35;96931.63;4877410;29;20271;-78
2023/05/24 03:09:08;;;;;;;11.38;5.30;;;;;;;12.60;61.76;96930.44;4879278;29;20101;-79
2023/05/24 03:11:35;;;;;;;10.70;4.60;;;;;;;12.57;61.37;96930.78;4878658;29;20057;-78
2023/05/24 03:14:03;;;;;;;7.90;4.25;;;;;;;12.50;61.30;96935.94;4878802;29;20057;-78
2023/05/24 03:16:30;;;;;;;10.73;4.57;;;;;;;12.45;61.37;96934.91;4878724;29;20088;-78
2023/05/24 03:18:59;;;;;;;10.75;4.80;;;;;;;12.39;61.59;96933.00;4878623;29;20079;-78
2023/05/24 03:21:26;;;;;;;12.98;4.80;;;;;;;12.34;61.55;96938.81;4878745;29;20053;-78
2023/05/24 03:23:55;;;;;;;11.60;5.38;;;;;;;12.27;61.59;96936.13;4878752;29;20470;-77
2023/05/24 03:26:23;;;;;;;11.35;4.63;;;;;;;12.20;61.81;96935.22;4878733;29;20085;-78
2023/05/24 03:28:53;;;;;;;9.93;4.43;;;;;;;12.17;61.96;96938.19;4878561;29;20136;-78
2023/05/24 03:31:22;;;;;;;11.48;5.13;;;;;;;12.13;62.05;96935.16;4878826;29;20117;-78
2023/05/24 03:33:50;;;;;;;11.02;5.00;;;;;;;12.11;62.14;96936.31;4878164;29;20057;-78
2023/05/24 03:36:19;;;;;;;11.30;4.75;;;;;;;12.09;62.21;96940.91;4877550;29;20079;-78
2023/05/24 03:38:47;;;;;;;10.35;5.10;;;;;;;12.09;62.06;96933.06;4878591;29;20101;-79
2023/05/24 03:41:16;;;;;;;8.63;5.03;;;;;;;12.11;62.40;96933.69;4878300;29;20084;-78
2023/05/24 03:43:43;;;;;;;9.10;4.68;;;;;;;12.13;62.20;96936.94;4878138;29;20060;-78
2023/05/24 03:46:11;;;;;;;9.52;4.65;;;;;;;12.12;62.11;96937.94;4877758;29;20121;-79
2023/05/24 03:48:39;;;;;;;11.15;4.75;;;;;;;12.13;62.88;96937.78;4878354;29;20430;-78
2023/05/24 03:51:08;;;;;;;8.68;4.97;;;;;;;12.15;62.33;96932.34;4878643;29;20116;-78
2023/05/24 03:53:35;;;;;;;8.40;5.25;;;;;;;12.12;62.17;96936.13;4878493;29;20112;-79
2023/05/24 03:56:03;;;;;;;8.27;5.00;;;;;;;12.07;62.22;96935.88;4877795;29;20057;-78
2023/05/24 03:58:32;;;;;;;10.82;5.28;;;;;;;12.03;62.44;96928.59;4878571;29;20087;-79
2023/05/24 04:01:00;;;;;;;12.93;4.95;;;;;;;12.00;62.46;96934.16;4877890;29;20059;-78
2023/05/24 04:03:28;;;;;;;10.75;4.18;;;;;;;12.01;63.33;96933.19;4877829;29;20132;-78
2023/05/24 04:05:55;;;;;;;9.77;4.93;;;;;;;12.01;62.80;96936.59;4878231;29;20490;-78
2023/05/24 04:08:23;;;;;;;11.55;4.82;;;;;;;12.00;62.85;96934.97;4878230;29;20083;-78
2023/05/24 04:10:50;;;;;;;11.52;5.07;;;;;;;12.00;62.95;96929.75;4878328;29;20090;-78
2023/05/24 04:13:18;;;;;;;10.93;5.30;;;;;;;12.01;62.78;96930.56;4881028;29;20090;-78
2023/05/24 04:15:47;;;;;;;10.52;5.05;;;;;;;12.03;64.07;96934.63;4882297;29;20136;-78
2023/05/24 04:18:15;;;;;;;9.73;5.35;;;;;;;12.05;63.31;96931.84;4884826;29;20076;-78
2023/05/24 04:20:43;;;;;;;8.60;4.32;;;;;;;12.04;63.49;96924.97;4883142;29;20079;-77
2023/05/24 04:23:11;;;;;;;7.25;4.30;;;;;;;12.09;64.85;96925.22;4884776;29;20077;-80
2023/05/24 04:25:39;;;;;;;10.98;4.85;;;;;;;12.13;63.74;96923.88;4882733;29;20053;-78
2023/05/24 04:28:07;;;;;;;11.43;5.22;;;;;;;12.15;63.34;96932.34;4887731;29;20060;-79
2023/05/24 04:30:35;;;;;;;10.63;5.85;;;;;;;12.13;62.70;96929.09;4886131;29;20105;-79
2023/05/24 04:33:04;;;;;;;10.43;5.68;;;;;;;12.10;62.84;96929.47;4891265;29;20049;-77
2023/05/24 04:35:32;;;;;;;11.45;5.25;;;;;;;12.06;63.01;96928.22;4888070;29;20060;-77
2023/05/24 04:37:59;;;;;;;9.57;5.30;;;;;;;12.03;63.47;96933.81;4882968;29;20128;-78
2023/05/24 04:40:27;;;;;;;13.60;5.13;;;;;;;12.00;63.14;96931.56;4870769;29;20529;-77
2023/05/24 04:42:55;;;;;;;12.18;5.93;;;;;;;11.93;63.43;96929.66;4865677;29;20133;-78
2023/05/24 04:45:22;;;;;;;12.13;5.75;;;;;;;11.93;63.29;96932.28;4881589;29;20081;-78
2023/05/24 04:47:50;;;;;;;12.40;6.65;;;;;;;11.91;63.29;96934.25;4888532;29;20501;-79
2023/05/24 04:50:19;;;;;;;14.70;6.68;;;;;;;11.89;63.50;96933.63;4897461;29;20053;-78
2023/05/24 04:52:47;;;;;;;12.75;5.60;;;;;;;11.88;63.51;96937.25;4882615;29;20072;-79
2023/05/24 04:55:14;;;;;;;16.10;5.57;;;;;;;11.88;63.50;96937.25;4887782;29;20056;-79
2023/05/24 04:57:42;;;;;;;8.93;5.30;;;;;;;11.89;63.45;96940.66;4880935;29;20049;-78
2023/05/24 05:00:10;;;;;;;9.93;4.93;;;;;;;11.91;63.37;96944.72;4881594;29;20081;-78
2023/05/24 05:02:38;;;;;;;12.35;5.88;;;;;;;11.92;63.40;96942.94;4881504;29;20052;-78
2023/05/24 05:05:07;;;;;;;10.13;4.93;;;;;;;11.91;63.82;96942.09;4885031;29;20069;-78
2023/05/24 05:07:37;;;;;;;11.68;5.97;;;;;;;11.93;63.15;96944.53;4883388;29;20109;-78
2023/05/24 05:10:05;;;;;;;10.07;4.85;;;;;;;11.90;63.24;96945.72;4882028;29;20052;-77
2023/05/24 05:12:33;;;;;;;16.00;5.68;;;;;;;11.92;63.38;96946.34;4882968;29;20522;-78
2023/05/24 05:15:01;;;;;;;11.48;6.65;;;;;;;11.93;63.19;96955.81;4880545;29;20055;-75
2023/05/24 05:17:28;;;;;;;11.30;6.40;;;;;;;11.91;63.15;96963.00;4880567;29;20064;-77
2023/05/24 05:19:56;;;;;;;13.52;6.32;;;;;;;11.87;63.32;96958.31;4881759;29;20049;-76
2023/05/24 05:22:24;;;;;;;15.60;6.28;;;;;;;11.82;63.38;96958.84;4880355;29;20057;-77
2023/05/24 05:24:53;;;;;;;13.07;5.40;;;;;;;11.79;63.52;96959.22;4878897;29;20582;-77
2023/05/24 05:27:20;;;;;;;15.18;5.63;;;;;;;11.77;63.49;96955.97;4880172;29;20531;-77
2023/05/24 05:29:48;;;;;;;10.10;5.40;;;;;;;11.74;63.60;96958.94;4880712;29;20053;-76
2023/05/24 05:32:16;;;;;;;12.77;5.80;;;;;;;11.74;63.94;96957.16;4880105;29;20049;-77
2023/05/24 05:34:44;;;;;;;9.38;4.85;;;;;;;11.79;63.72;96954.00;4879786;29;20057;-77
2023/05/24 05:37:11;;;;;;;12.38;5.43;;;;;;;11.81;63.45;96954.63;4880004;29;20109;-77
2023/05/24 05:39:39;;;;;;;12.25;5.20;;;;;;;11.83;63.62;96942.19;4880129;29;20097;-76
2023/05/24 05:42:08;;;;;;;11.95;4.75;;;;;;;11.86;63.48;96946.25;4880142;29;20057;-77
2023/05/24 05:44:36;;;;;;;8.05;4.85;;;;;;;11.92;65.67;96948.16;4879993;29;20041;-77
2023/05/24 05:47:06;;;;;;;12.98;5.45;;;;;;;11.98;64.63;96944.00;4879770;29;20084;-77
2023/05/24 05:49:35;;;;;;;13.07;6.63;;;;;;;11.99;63.69;96937.78;4880215;29;20049;-76
2023/05/24 05:52:02;;;;;;;14.70;5.63;;;;;;;11.99;64.11;96935.97;4879977;29;20049;-76
2023/05/24 05:54:30;;;;;;;14.25;5.00;;;;;;;12.02;63.61;96926.97;4879940;29;20501;-76
2023/05/24 05:56:58;;;;;;;11.80;5.47;;;;;;;12.08;62.97;96942.72;4880199;29;20394;-76
2023/05/24 05:59:29;;;;;;;13.25;5.55;;;;;;;12.07;62.19;96932.44;4882896;29;20616;-77
2023/05/24 06:01:57;;;;;;;6.65;4.53;;;;;;;12.03;62.23;96937.25;4879510;29;20504;-76
2023/05/24 06:04:24;;;;;;;10.85;5.63;;;;;;;11.94;62.05;96936.53;4860802;29;20511;-76
2023/05/24 06:06:52;;;;;;;10.70;4.93;;;;;;;11.88;62.20;96942.47;4874824;29;20553;-75
2023/05/24 06:09:19;;;;;;;14.40;5.25;;;;;;;11.82;62.65;96951.00;4879723;29;20080;-77
2023/05/24 06:11:47;;;;;;;11.40;4.95;;;;;;;11.77;62.42;96939.47;4879447;29;20084;-75
2023/05/24 06:14:17;;;;;;;11.70;5.47;;;;;;;11.74;62.48;96944.09;4877937;29;20045;-75
2023/05/24 06:16:46;;;;;;;11.65;5.47;;;;;;;11.74;62.54;96943.25;4877644;29;20509;-75
2023/05/24 06:19:15;;;;;;;8.48;5.60;;;;;;;11.73;62.57;96939.81;4869085;29;20081;-74
2023/05/24 06:21:46;;;;;;;10.85;4.40;;;;;;;11.77;62.49;96950.75;4881311;29;20470;-76
2023/05/24 06:24:16;;;;;;;10.90;4.63;;;;;;;11.80;61.97;96946.94;4892606;29;20052;-79
2023/05/24 06:26:44;;;;;;;12.02;5.13;;;;;;;11.78;62.09;96957.56;4877435;29;20517;-78
2023/05/24 06:29:12;;;;;;;10.93;5.18;;;;;;;11.77;62.09;96948.13;4869400;29;20108;-76
2023/05/24 06:31:40;;;;;;;15.25;5.32;;;;;;;11.80;62.29;96945.16;4882368;29;20080;-78
2023/05/24 06:34:09;;;;;;;10.07;5.40;;;;;;;11.84;61.90;96951.63;4883280;29;20524;-75
2023/05/24 06:36:40;;;;;;;12.77;4.80;;;;;;;11.84;61.51;96946.41;4878237;29;20584;-75
2023/05/24 06:39:09;;;;;;;8.75;4.53;;;;;;;11.86;61.91;96954.06;4878901;29;20088;-75
2023/05/24 06:41:37;;;;;;;14.82;5.60;;;;;;;11.90;61.82;96956.19;4879385;29;20107;-75
2023/05/24 06:44:05;;;;;;;13.52;4.75;;;;;;;11.90;61.66;96958.00;4877864;29;20110;-75
2023/05/24 06:46:33;;;;;;;14.63;5.72;;;;;;;11.94;61.69;96965.28;4878584;29;20486;-75
2023/05/24 06:49:00;;;;;;;12.73;4.57;;;;;;;11.98;61.33;96964.91;4879252;29;20083;-75
2023/05/24 06:51:32;;;;;;;7.03;4.50;;;;;;;12.01;61.20;96967.19;4879032;29;20053;-75
2023/05/24 06:53:59;;;;;;;8.35;4.65;;;;;;;12.02;60.89;96966.16;4879025;29;20057;-75
2023/05/24 06:56:27;;;;;;;9.68;4.85;;;;;;;12.03;61.09;96967.81;4878569;29;20136;-75
2023/05/24 06:58:55;;;;;;;11.00;4.60;;;;;;;11.99;61.06;96974.38;4879092;29;20063;-75
2023/05/24 07:01:23;;;;;;;13.88;5.07;;;;;;;12.01;61.08;96977.63;4879009;29;20108;-75
2023/05/24 07:03:50;;;;;;;10.32;5.15;;;;;;;12.01;61.03;96969.78;4878964;29;20052;-75
2023/05/24 07:06:18;;;;;;;11.13;4.80;;;;;;;12.05;60.60;96973.66;4892666;29;20049;-75
2023/05/24 07:08:47;;;;;;;11.02;4.35;;;;;;;12.08;60.80;96988.97;4893663;29;20061;-76
2023/05/24 07:11:15;;;;;;;10.50;5.20;;;;;;;12.14;60.71;96998.72;4896760;29;20156;-75
2023/05/24 07:13:42;;;;;;;12.68;4.70;;;;;;;12.19;60.54;96998.97;4888720;29;20053;-75
2023/05/24 07:16:11;;;;;;;9.48;5.05;;;;;;;12.20;60.40;96992.78;4884968;29;20049;-75
2023/05/24 07:18:40;;;;;;;16.20;5.57;;;;;;;12.25;60.45;96993.03;4883325;29;20057;-76
2023/05/24 07:21:08;;;;;;;9.75;5.53;;;;;;;12.29;59.81;96990.88;4883004;29;20053;-76
2023/05/24 07:23:37;;;;;;;9.60;4.68;;;;;;;12.27;59.58;96993.66;4882371;29;20403;-76
2023/05/24 07:26:07;;;;;;;12.25;5.30;;;;;;;12.25;60.36;97000.88;4882512;29;20109;-76
2023/05/24 07:28:36;;;;;;;12.20;4.80;;;;;;;12.26;60.18;96992.03;4881789;29;20066;-76
2023/05/24 07:31:05;;;;;;;9.90;4.43;;;;;;;12.32;61.14;96995.72;4888006;29;20053;-77
2023/05/24 07:33:32;;;;;;;13.57;5.22;;;;;;;12.42;60.47;96995.41;4889349;29;20084;-76
2023/05/24 07:36:01;;;;;;;9.32;4.95;;;;;;;12.48;60.13;97005.16;4883267;29;20053;-76
2023/05/24 07:38:29;;;;;;;9.38;4.97;;;;;;;12.55;59.05;97011.28;4879067;29;20084;-76
2023/05/24 07:40:59;;;;;;;14.70;5.38;;;;;;;12.58;58.00;97010.91;4878584;29;20057;-76
2023/05/24 07:43:29;;;;;;;10.82;5.00;;;;;;;12.60;57.65;97013.38;4878473;29;20136;-76
2023/05/24 07:45:57;;;;;;;11.38;5.53;;;;;;;12.63;57.71;97013.78;4878218;29;20528;-76
2023/05/24 07:48:25;;;;;;;13.63;5.10;;;;;;;12.66;57.81;97016.06;4878019;29;20052;-76
2023/05/24 07:50:53;;;;;;;11.50;4.57;;;;;;;12.69;57.63;97013.06;4878187;29;20049;-76
2023/05/24 07:53:22;;;;;;;8.20;4.15;;;;;;;12.74;57.92;97018.53;4878341;29;20125;-76
2023/05/24 07:55:50;;;;;;;17.20;5.35;;;;;;;12.81;57.84;97025.66;4878336;29;20541;-76
2023/05/24 07:58:18;;;;;;;13.27;4.72;;;;;;;12.85;58.01;97021.69;4878242;29;20061;-76
2023/05/24 08:00:47;;;;;;;13.07;5.03;;;;;;;12.87;57.55;97024.94;4878108;29;20532;-76
2023/05/24 08:03:16;;;;;;;11.55;4.53;;;;;;;12.87;57.34;97020.50;4878051;29;20124;-76
2023/05/24 08:05:43;;;;;;;10.77;5.18;;;;;;;12.92;57.58;97028.63;4877766;29;20510;-76
2023/05/24 08:08:12;;;;;;;8.45;4.38;;;;;;;12.90;57.46;97020.13;4878261;29;20433;-76
2023/05/24 08:10:40;;;;;;;12.65;4.90;;;;;;;12.93;57.24;97024.19;4878154;29;20053;-76
2023/05/24 08:13:08;;;;;;;11.27;5.13;;;;;;;12.91;57.09;97021.75;4877980;29;20053;-74
2023/05/24 08:15:35;;;;;;;16.48;5.63;;;;;;;12.96;57.25;97018.56;4881484;29;20124;-74
2023/05/24 08:18:04;;;;;;;10.73;4.97;;;;;;;12.99;57.33;97023.44;4898296;29;20052;-77
2023/05/24 08:20:34;;;;;;;9.07;4.60;;;;;;;13.02;56.70;97025.69;4896413;29;20056;-75
2023/05/24 08:23:02;;;;;;;11.20;4.13;;;;;;;12.98;56.84;97024.44;4884085;29;20053;-76
2023/05/24 08:25:30;;;;;;;14.35;4.50;;;;;;;12.99;56.74;97034.72;4877899;29;20049;-76
2023/05/24 08:27:57;;;;;;;14.30;4.60;;;;;;;13.02;56.48;97036.16;4878090;29;20113;-75
2023/05/24 08:30:25;;;;;;;8.43;4.20;;;;;;;13.03;57.48;97035.19;4878029;29;20049;-74
2023/05/24 08:32:53;;;;;;;12.88;5.43;;;;;;;13.05;56.54;97034.97;4878052;29;20095;-74
2023/05/24 08:35:22;;;;;;;11.35;4.47;;;;;;;13.04;56.26;97036.78;4877766;29;20057;-76
2023/05/24 08:37:52;;;;;;;12.60;4.55;;;;;;;13.00;55.92;97040.78;4902074;23;20053;-89
2023/05/24 08:40:22;;;;;;;15.48;5.93;;;;;;;13.02;56.22;97041.41;4883729;29;20594;-88
2023/05/24 08:42:55;;;;;;;15.98;5.10;;;;;;;13.07;56.36;97036.41;4883988;29;20057;-88
2023/05/24 08:45:35;;;;;;;13.48;4.57;;;;;;;13.11;55.60;97037.66;4884072;29;20064;-85
2023/05/24 08:48:14;;;;;;;10.25;4.53;;;;;;;13.15;55.45;97043.34;4884144;29;20060;-89
2023/05/24 08:50:50;;;;;;;12.70;4.63;;;;;;;13.16;55.31;97045.78;4884282;29;20061;-85
2023/05/24 08:53:24;;;;;;;12.48;4.78;;;;;;;13.12;55.08;97047.16;4884151;29;20082;-90
2023/05/24 08:55:55;;;;;;;10.77;4.45;;;;;;;13.12;55.25;97044.53;4884900;29;20071;-85
2023/05/24 08:58:25;;;;;;;10.65;5.07;;;;;;;13.11;55.23;97042.88;4885293;29;20148;-88
2023/05/24 09:00:54;;;;;;;12.10;4.90;;;;;;;13.11;55.53;97032.41;4887555;29;20076;-86
2023/05/24 09:03:27;;;;;;;9.05;4.25;;;;;;;13.14;55.63;97032.06;4887887;29;20474;-90
2023/05/24 09:06:00;;;;;;;12.80;5.15;;;;;;;13.15;55.28;97032.84;4887708;29;20053;-84
2023/05/24 09:08:36;;;;;;;13.18;4.10;;;;;;;13.20;55.38;97038.34;4888898;29;20080;-89
2023/05/24 09:11:07;;;;;;;7.97;4.05;;;;;;;13.24;55.31;97041.41;4889053;29;20506;-86
2023/05/24 09:13:36;;;;;;;11.07;4.50;;;;;;;13.24;55.09;97041.41;4888347;29;20060;-89
2023/05/24 09:19:05;;;;;;;11.25;4.53;;;;;;;13.24;55.17;97057.13;4889309;29;20099;-84
2023/05/24 09:21:41;;;;;;;13.93;4.82;;;;;;;13.29;55.00;97054.78;4888934;29;20053;-88
2023/05/24 09:24:22;;;;;;;8.00;4.28;;;;;;;13.29;55.23;97054.78;4888812;29;20071;-86
2023/05/24 09:27:01;;;;;;;12.88;4.97;;;;;;;13.27;54.43;97060.19;4888227;29;20063;-87
2023/05/24 09:29:37;;;;;;;17.52;5.63;;;;;;;13.26;54.85;97057.75;4888691;29;20131;-84
2023/05/24 09:32:08;;;;;;;14.77;5.70;;;;;;;13.25;55.34;97053.50;4888211;29;20048;-89
2023/05/24 09:34:41;;;;;;;11.38;4.85;;;;;;;13.26;55.18;97057.75;4887647;29;20075;-88
2023/05/24 09:37:16;;;;;;;12.90;4.45;;;;;;;13.24;55.01;97051.88;4887958;29;20053;-84
2023/05/24 09:39:47;;;;;;;8.77;4.47;;;;;;;13.24;55.06;97052.69;4887215;29;20072;-84
2023/05/24 09:42:23;;;;;;;13.38;4.85;;;;;;;13.23;54.92;97045.84;4887000;29;20583;-85
2023/05/24 09:45:06;;;;;;;13.32;4.93;;;;;;;13.20;54.67;97057.47;4890433;29;20073;-88
2023/05/24 09:47:37;;;;;;;12.25;4.57;;;;;;;13.16;54.44;97060.66;4889808;29;20065;-89
2023/05/24 09:50:15;;;;;;;12.60;4.18;;;;;;;13.11;54.39;97058.59;4889314;29;20065;-89
2023/05/24 09:52:48;;;;;;;9.98;4.35;;;;;;;13.08;54.90;97055.56;4887838;29;20053;-89
2023/05/24 09:55:19;;;;;;;11.20;4.82;;;;;;;13.07;54.97;97056.53;4886882;29;20076;-88
2023/05/24 09:57:54;;;;;;;11.00;4.55;;;;;;;13.04;54.86;97051.69;4887469;29;20057;-87
2023/05/24 10:00:26;;;;;;;6.60;4.03;;;;;;;13.09;56.09;97055.34;4888687;29;20059;-87
2023/05/24 10:03:03;;;;;;;12.80;4.70;;;;;;;13.12;54.86;97067.28;4887968;29;20077;-89
2023/05/24 10:05:31;;;;;;;11.75;4.60;;;;;;;13.13;55.29;97063.66;4888333;29;20112;-87
2023/05/24 10:08:05;;;;;;;9.95;4.38;;;;;;;13.16;55.04;97066.75;4887060;29;20052;-88
2023/05/24 10:10:42;;;;;;;8.00;4.18;;;;;;;13.21;55.47;97068.78;4886809;29;20089;-88
2023/05/24 10:13:16;;;;;;;13.15;5.05;;;;;;;13.22;54.69;97069.59;4886938;29;20513;-88
2023/05/24 10:15:50;;;;;;;10.70;4.70;;;;;;;13.17;54.80;97063.09;4886595;29;20592;-88
2023/05/24 10:18:22;;;;;;;8.88;4.97;;;;;;;13.22;55.05;97064.34;4886094;29;20734;-86
2023/05/24 10:20:57;;;;;;;11.73;4.65;;;;;;;13.26;54.90;97070.84;4886122;29;20505;-90
2023/05/24 10:23:36;;;;;;;11.38;4.43;;;;;;;13.28;54.27;97068.84;4887512;29;20132;-87
2023/05/24 10:26:10;;;;;;;7.82;4.50;;;;;;;13.27;54.06;97062.81;4886243;29;20089;-90
2023/05/24 10:28:42;;;;;;;10.25;4.40;;;;;;;13.27;53.93;97060.19;4886830;29;20056;-89
2023/05/24 10:31:17;;;;;;;10.77;4.57;;;;;;;13.28;54.10;97059.22;4886678;29;20089;-87
2023/05/24 10:33:51;;;;;;;12.63;4.45;;;;;;;13.28;53.95;97056.59;4886743;29;20259;-88
2023/05/24 10:36:29;;;;;;;11.10;4.85;;;;;;;13.24;54.19;97054.50;4885817;29;20053;-87
2023/05/24 10:39:03;;;;;;;10.73;4.80;;;;;;;13.18;54.25;97042.94;4886307;29;20068;-88
2023/05/24 10:41:42;;;;;;;11.77;4.78;;;;;;;13.14;54.76;97037.28;4885630;29;20057;-82
2023/05/24 10:44:16;;;;;;;14.23;5.70;;;;;;;13.16;55.24;97040.53;4884939;29;20053;-88
2023/05/24 10:47:04;;;;;;;;;;;;;;;13.20;54.82;97041.75;4884447;29;20498;-83
2023/05/24 10:49:39;;;;;;;8.82;5.28;;;;;;;13.17;54.32;97042.16;4884255;29;20399;-84
2023/05/24 10:52:16;;;;;;;11.52;5.03;;;;;;;13.12;54.24;97039.28;4884211;29;20056;-83
2023/05/24 10:55:15;;;;;;;7.97;4.65;;;;;;;13.10;54.40;97038.66;4883544;29;20152;-87
2023/05/24 10:57:46;;;;;;;10.80;4.07;;;;;;;13.14;55.79;97042.53;4883118;29;20052;-88
2023/05/24 11:00:27;;;;;;;13.13;4.72;;;;;;;13.22;55.01;97046.81;4882613;29;20143;-82
2023/05/24 11:03:22;;;;;;;10.38;4.80;;;;;;;13.23;53.29;97040.59;4882602;29;20049;-90
2023/05/24 11:06:00;;;;;;;8.77;3.88;;;;;;;13.22;54.14;97038.16;4882501;29;20071;-89
2023/05/24 11:08:34;;;;;;;12.68;5.60;;;;;;;13.20;53.88;97036.53;4882782;29;20513;-87
2023/05/24 11:11:11;;;;;;;16.83;5.57;;;;;;;13.15;54.38;97043.34;4882942;29;20057;-84
2023/05/24 11:13:57;;;;;;;9.35;4.55;;;;;;;13.14;54.25;97037.28;4882577;29;20429;-83
2023/05/24 11:16:38;;;;;;;8.80;4.50;;;;;;;13.13;54.22;97035.66;4882026;29;20087;-87
2023/05/24 11:19:20;;;;;;;12.07;5.35;;;;;;;13.15;54.11;97043.34;4882945;29;20083;-85
2023/05/24 11:21:57;;;;;;;9.80;4.78;;;;;;;13.14;54.13;97042.53;4882842;29;20469;-83
2023/05/24 11:24:30;;;;;;;13.35;4.43;;;;;;;13.11;54.05;97039.47;4882046;29;20592;-87
2023/05/24 11:27:04;;;;;;;9.38;5.15;;;;;;;13.05;54.22;97037.59;4882301;29;20057;-83
2023/05/24 11:29:46;;;;;;;11.88;4.50;;;;;;;12.99;54.12;97029.50;4882512;29;20466;-87
2023/05/24 11:32:23;;;;;;;9.55;4.97;;;;;;;12.92;53.98;97022.56;4881795;29;20143;-86
2023/05/24 11:34:52;;;;;;;12.05;5.50;;;;;;;12.88;54.43;97026.53;4881579;29;20061;-84
2023/05/24 11:37:23;;;;;;;13.07;5.05;;;;;;;12.91;54.71;97026.19;4881428;29;20351;-89
2023/05/24 11:40:15;;;;;;;15.10;5.35;;;;;;;12.95;53.74;97030.84;4881055;29;20053;-82
2023/05/24 11:42:47;;;;;;;15.17;4.90;;;;;;;12.90;53.03;97030.59;4881180;29;20520;-81
2023/05/24 11:45:21;;;;;;;15.50;4.72;;;;;;;12.89;53.57;97031.59;4881039;29;20057;-86
2023/05/24 11:47:55;;;;;;;9.50;4.60;;;;;;;12.87;53.57;97032.78;4880926;29;20586;-81